createdAt,value
2019-03-10T00:01:04.422Z,7.74
2019-03-10T00:03:32.332Z,7.65
2019-03-10T00:06:00.394Z,7.63
2019-03-10T00:08:30.566Z,7.55
2019-03-10T00:10:58.545Z,7.52
2019-03-10T00:13:27.481Z,7.46
2019-03-10T00:15:55.787Z,7.50
2019-03-10T00:18:23.675Z,7.45
2019-03-10T00:20:51.714Z,7.50
2019-03-10T00:23:19.790Z,7.43
2019-03-10T00:25:47.747Z,7.43
2019-03-10T00:28:18.498Z,7.46
2019-03-10T00:30:46.459Z,7.26
2019-03-10T00:33:14.464Z,7.29
2019-03-10T00:35:42.533Z,7.28
2019-03-10T00:38:10.831Z,7.23
2019-03-10T00:41:04.720Z,7.23
2019-03-10T00:44:19.873Z,7.19
2019-03-10T00:47:32.121Z,7.22
2019-03-10T00:50:35.717Z,7.20
2019-03-10T00:53:03.697Z,7.20
2019-03-10T00:55:31.592Z,7.12
2019-03-10T00:57:59.590Z,7.13
2019-03-10T01:00:27.648Z,6.99
2019-03-10T01:02:58.255Z,6.99
2019-03-10T01:05:26.215Z,6.94
2019-03-10T01:07:56.627Z,6.94
2019-03-10T01:10:24.453Z,6.93
2019-03-10T01:12:52.837Z,6.72
2019-03-10T01:15:20.878Z,6.83
2019-03-10T01:17:50.765Z,6.88
2019-03-10T01:20:18.861Z,6.79
2019-03-10T01:22:46.754Z,6.63
2019-03-10T01:25:17.404Z,6.63
2019-03-10T01:27:45.334Z,6.77
2019-03-10T01:30:15.898Z,6.70
2019-03-10T01:33:25.193Z,6.52
2019-03-10T01:35:56.039Z,6.59
2019-03-10T01:38:23.896Z,6.64
2019-03-10T01:40:52.204Z,6.52
2019-03-10T01:43:20.002Z,6.41
2019-03-10T01:45:50.040Z,6.52
2019-03-10T01:48:17.920Z,6.37
2019-03-10T01:50:45.971Z,6.44
2019-03-10T01:53:14.152Z,6.33
2019-03-10T01:55:41.990Z,6.26
2019-03-10T01:58:09.896Z,6.25
2019-03-10T02:00:37.858Z,6.29
2019-03-10T02:03:05.743Z,6.19
2019-03-10T02:05:33.702Z,6.16
2019-03-10T02:08:01.601Z,6.13
2019-03-10T02:10:29.435Z,6.05
2019-03-10T02:12:57.237Z,6.18
2019-03-10T02:15:28.527Z,6.09
2019-03-10T02:17:56.423Z,6.06
2019-03-10T02:20:26.907Z,6.13
2019-03-10T02:22:55.732Z,6.08
2019-03-10T02:25:23.819Z,6.07
2019-03-10T02:27:51.741Z,6.06
2019-03-10T02:30:19.782Z,5.98
2019-03-10T02:32:47.719Z,5.96
2019-03-10T02:35:15.682Z,6.00
2019-03-10T02:37:43.789Z,5.84
2019-03-10T02:40:11.763Z,5.88
2019-03-10T02:42:44.032Z,5.85
2019-03-10T02:45:12.102Z,5.95
2019-03-10T02:47:40.036Z,5.88
2019-03-10T02:50:08.356Z,5.87
2019-03-10T02:52:36.458Z,5.89
2019-03-10T02:55:04.816Z,5.85
2019-03-10T02:57:33.664Z,5.90
2019-03-10T03:00:01.549Z,5.89
2019-03-10T03:02:31.801Z,5.83
2019-03-10T03:04:59.606Z,5.82
2019-03-10T03:07:27.571Z,5.74
2019-03-10T03:09:55.490Z,5.83
2019-03-10T03:12:23.938Z,5.81
2019-03-10T03:14:52.502Z,5.67
2019-03-10T03:17:20.453Z,5.65
2019-03-10T03:19:48.382Z,5.73
2019-03-10T03:22:19.129Z,5.69
2019-03-10T03:24:47.042Z,5.60
2019-03-10T03:27:16.214Z,5.65
2019-03-10T03:29:44.023Z,5.59
2019-03-10T03:32:11.886Z,5.62
2019-03-10T03:34:39.682Z,5.54
2019-03-10T03:37:09.845Z,5.48
2019-03-10T03:39:46.317Z,5.56
2019-03-10T03:42:16.543Z,5.50
2019-03-10T03:44:44.445Z,5.55
2019-03-10T03:47:12.534Z,5.59
2019-03-10T03:49:42.168Z,5.64
2019-03-10T03:52:10.095Z,5.53
2019-03-10T03:54:38.143Z,5.45
2019-03-10T03:57:06.173Z,5.59
2019-03-10T03:59:34.573Z,5.66
2019-03-10T04:02:12.927Z,5.60
2019-03-10T04:04:40.738Z,5.57
2019-03-10T04:07:08.599Z,5.69
2019-03-10T04:09:36.494Z,5.61
2019-03-10T04:12:04.564Z,5.64
2019-03-10T04:14:32.651Z,5.67
2019-03-10T04:17:00.620Z,5.68
2019-03-10T04:19:28.417Z,5.68
2019-03-10T04:21:59.012Z,5.67
2019-03-10T04:24:26.823Z,5.69
2019-03-10T04:26:54.622Z,5.62
2019-03-10T04:29:22.480Z,5.68
2019-03-10T04:31:51.003Z,5.60
2019-03-10T04:34:18.829Z,5.69
2019-03-10T04:36:46.605Z,5.71
2019-03-10T04:39:14.569Z,5.68
2019-03-10T04:41:42.377Z,5.65
2019-03-10T04:44:10.241Z,5.62
2019-03-10T04:46:38.152Z,5.58
2019-03-10T04:49:06.006Z,5.59
2019-03-10T04:51:36.991Z,5.65
2019-03-10T04:54:07.838Z,5.59
2019-03-10T04:56:59.055Z,5.60
2019-03-10T04:59:26.843Z,5.57
2019-03-10T05:01:54.720Z,5.49
2019-03-10T05:04:22.809Z,5.48
2019-03-10T05:06:50.728Z,5.54
2019-03-10T05:09:18.564Z,5.43
2019-03-10T05:11:46.488Z,5.47
2019-03-10T05:14:14.314Z,5.50
2019-03-10T05:16:42.331Z,5.39
2019-03-10T05:19:13.438Z,5.32
2019-03-10T05:21:41.323Z,5.31
2019-03-10T05:24:12.297Z,5.35
2019-03-10T05:26:40.111Z,5.43
2019-03-10T05:29:07.971Z,5.40
2019-03-10T05:31:35.894Z,5.36
2019-03-10T05:34:03.919Z,5.39
2019-03-10T05:36:31.746Z,5.43
2019-03-10T05:39:00.101Z,5.49
2019-03-10T05:41:27.990Z,5.48
2019-03-10T05:43:58.930Z,5.62
2019-03-10T05:46:26.819Z,5.56
2019-03-10T05:48:54.674Z,5.58
2019-03-10T05:51:23.039Z,5.59
2019-03-10T05:53:56.641Z,5.54
2019-03-10T05:56:24.479Z,5.58
2019-03-10T05:58:55.196Z,5.58
2019-03-10T06:01:23.084Z,5.59
2019-03-10T06:03:50.927Z,5.62
2019-03-10T06:06:18.752Z,5.71
2019-03-10T06:08:46.732Z,5.80
2019-03-10T06:11:14.643Z,5.87
2019-03-10T06:13:42.507Z,5.88
2019-03-10T06:16:10.582Z,5.85
2019-03-10T06:18:41.208Z,5.94
2019-03-10T06:21:09.172Z,5.97
2019-03-10T06:23:40.807Z,6.01
2019-03-10T06:26:08.611Z,6.03
2019-03-10T06:28:36.985Z,6.08
2019-03-10T06:31:04.815Z,6.09
2019-03-10T06:33:33.745Z,6.08
2019-03-10T06:36:01.684Z,6.18
2019-03-10T06:38:29.575Z,6.18
2019-03-10T06:40:57.371Z,6.21
2019-03-10T06:43:25.375Z,6.25
2019-03-10T06:45:53.337Z,6.28
2019-03-10T06:48:21.246Z,6.33
2019-03-10T06:50:49.229Z,6.39
2019-03-10T06:53:17.139Z,6.48
2019-03-10T06:55:47.752Z,6.49
2019-03-10T06:58:17.895Z,6.50
2019-03-10T07:00:45.883Z,6.52
2019-03-10T07:03:13.731Z,6.53
2019-03-10T07:05:44.320Z,6.55
2019-03-10T07:08:12.249Z,6.61
2019-03-10T07:10:40.235Z,6.67
2019-03-10T07:13:08.139Z,6.68
2019-03-10T07:15:36.150Z,6.73
2019-03-10T07:18:04.203Z,6.74
2019-03-10T07:20:34.263Z,6.78
2019-03-10T07:23:03.874Z,6.78
2019-03-10T07:25:31.856Z,6.86
2019-03-10T07:28:18.230Z,6.91
2019-03-10T07:31:19.719Z,6.94
2019-03-10T07:34:07.066Z,7.01
2019-03-10T07:37:00.215Z,7.10
2019-03-10T07:39:44.702Z,7.15
2019-03-10T07:42:26.690Z,7.26
2019-03-10T07:45:33.021Z,7.40
2019-03-10T07:48:15.944Z,7.45
2019-03-10T07:50:56.446Z,7.53
2019-03-10T07:53:55.825Z,7.64
2019-03-10T07:56:41.747Z,7.67
2019-03-10T07:59:34.767Z,7.73
2019-03-10T08:02:24.833Z,7.81
2019-03-10T08:05:14.777Z,7.87
2019-03-10T08:08:04.967Z,8.01
2019-03-10T08:10:57.031Z,8.08
2019-03-10T08:13:47.163Z,8.18
2019-03-10T08:16:43.373Z,8.32
2019-03-10T08:19:34.935Z,8.44
2019-03-10T08:22:28.065Z,8.52
2019-03-10T08:25:17.388Z,8.56
2019-03-10T08:28:01.848Z,8.64
2019-03-10T08:30:44.543Z,8.74
2019-03-10T08:33:35.007Z,8.76
2019-03-10T08:36:26.790Z,8.89
2019-03-10T08:39:05.841Z,8.93
2019-03-10T08:41:51.979Z,9.05
2019-03-10T08:44:37.910Z,9.15
2019-03-10T08:47:11.936Z,9.13
2019-03-10T08:50:03.518Z,9.13
2019-03-10T08:52:38.501Z,9.14
2019-03-10T08:55:12.988Z,9.23
2019-03-10T08:57:59.616Z,9.21
2019-03-10T09:00:42.597Z,9.27
2019-03-10T09:03:28.293Z,9.27
2019-03-10T09:06:10.082Z,9.36
2019-03-10T09:09:12.602Z,9.38
2019-03-10T09:12:12.590Z,9.48
2019-03-10T09:15:02.569Z,9.53
2019-03-10T09:17:41.561Z,9.62
2019-03-10T09:20:39.941Z,9.69
2019-03-10T09:23:25.111Z,9.78
2019-03-10T09:26:15.063Z,9.86
2019-03-10T09:29:21.491Z,9.85
2019-03-10T09:32:01.180Z,9.87
2019-03-10T09:35:00.427Z,9.92
2019-03-10T09:37:38.702Z,9.99
2019-03-10T09:40:28.879Z,10.10
2019-03-10T09:43:06.545Z,10.17
2019-03-10T09:46:00.181Z,10.23
2019-03-10T09:48:50.592Z,10.17
2019-03-10T09:51:27.524Z,10.18
2019-03-10T09:54:26.947Z,10.20
2019-03-10T09:57:13.446Z,10.27
2019-03-10T10:00:16.058Z,10.19
2019-03-10T10:03:22.719Z,10.23
2019-03-10T10:06:00.656Z,10.27
2019-03-10T10:08:46.881Z,10.23
2019-03-10T10:11:37.048Z,10.23
2019-03-10T10:14:25.126Z,10.27
2019-03-10T10:17:10.982Z,10.27
2019-03-10T10:20:04.958Z,10.42
2019-03-10T10:22:42.172Z,10.41
2019-03-10T10:25:27.689Z,10.45
2019-03-10T10:28:17.695Z,10.49
2019-03-10T10:31:07.673Z,10.47
2019-03-10T10:33:54.991Z,10.46
2019-03-10T10:36:38.579Z,10.48
2019-03-10T10:39:30.277Z,10.59
2019-03-10T10:42:27.976Z,10.60
2019-03-10T10:45:05.227Z,10.56
2019-03-10T10:48:07.459Z,10.58
2019-03-10T10:51:13.060Z,10.65
2019-03-10T10:54:00.561Z,10.71
2019-03-10T10:56:46.428Z,10.78
2019-03-10T10:59:36.727Z,10.89
2019-03-10T11:02:24.102Z,10.96
2019-03-10T11:05:14.157Z,11.07
2019-03-10T11:07:56.419Z,11.14
2019-03-10T11:10:55.986Z,11.20
2019-03-10T11:13:40.380Z,11.13
2019-03-10T11:16:16.884Z,11.10
2019-03-10T11:19:03.237Z,11.03
2019-03-10T11:21:50.659Z,11.07
2019-03-10T11:24:32.929Z,11.03
2019-03-10T11:27:32.491Z,10.94
2019-03-10T11:30:26.887Z,10.87
2019-03-10T11:33:12.995Z,10.88
2019-03-10T11:36:00.334Z,10.92
2019-03-10T11:38:53.611Z,10.90
2019-03-10T11:41:34.161Z,10.88
2019-03-10T11:44:21.895Z,10.85
2019-03-10T11:46:58.026Z,10.86
2019-03-10T11:49:51.537Z,10.76
2019-03-10T11:52:38.093Z,10.80
2019-03-10T11:55:24.420Z,10.73
2019-03-10T11:58:06.933Z,10.73
2019-03-10T12:00:52.957Z,10.53
2019-03-10T12:03:31.527Z,10.52
2019-03-10T12:06:22.058Z,10.38
2019-03-10T12:09:09.636Z,10.27
2019-03-10T12:11:37.698Z,10.16
2019-03-10T12:14:05.779Z,10.29
2019-03-10T12:16:33.725Z,10.27
2019-03-10T12:19:02.374Z,10.05
2019-03-10T12:21:30.266Z,10.01
2019-03-10T12:23:58.348Z,9.95
2019-03-10T12:26:26.261Z,9.93
2019-03-10T12:28:54.189Z,9.84
2019-03-10T12:31:22.136Z,9.75
2019-03-10T12:33:50.408Z,9.73
2019-03-10T12:36:18.385Z,9.63
2019-03-10T12:38:46.332Z,9.54
2019-03-10T12:41:14.187Z,9.58
2019-03-10T12:43:41.953Z,9.57
2019-03-10T12:46:09.790Z,9.59
2019-03-10T12:48:37.708Z,9.44
2019-03-10T12:51:05.753Z,9.40
2019-03-10T12:53:33.670Z,9.39
2019-03-10T12:56:01.750Z,9.43
2019-03-10T12:58:29.700Z,9.40
2019-03-10T13:01:05.510Z,9.37
2019-03-10T13:03:27.647Z,9.26
2019-03-10T13:05:57.051Z,9.28
2019-03-10T13:08:31.982Z,9.13
2019-03-10T13:11:00.035Z,9.11
2019-03-10T13:13:27.869Z,9.08
2019-03-10T13:15:56.778Z,9.08
2019-03-10T13:18:24.752Z,9.10
2019-03-10T13:20:52.801Z,9.08
2019-03-10T13:23:20.589Z,9.16
2019-03-10T13:25:48.549Z,9.03
2019-03-10T13:28:16.431Z,8.84
2019-03-10T13:30:44.546Z,8.80
2019-03-10T13:33:12.478Z,8.76
2019-03-10T13:35:40.465Z,8.80
2019-03-10T13:38:10.584Z,8.77
2019-03-10T13:40:38.410Z,8.76
2019-03-10T13:43:06.432Z,8.72
2019-03-10T13:45:34.509Z,8.69
2019-03-10T13:48:02.482Z,8.56
2019-03-10T13:50:31.261Z,8.52
2019-03-10T13:52:59.412Z,8.51
2019-03-10T13:55:27.493Z,8.53
2019-03-10T13:57:55.377Z,8.53
2019-03-10T14:00:26.979Z,8.51
2019-03-10T14:02:55.072Z,8.56
2019-03-10T14:05:24.673Z,8.60
2019-03-10T14:07:52.834Z,8.59
2019-03-10T14:10:26.579Z,8.55
2019-03-10T14:12:54.579Z,8.59
2019-03-10T14:15:23.083Z,8.60
2019-03-10T14:17:51.282Z,8.67
2019-03-10T14:20:19.286Z,8.73
2019-03-10T14:22:47.185Z,8.73
2019-03-10T14:25:15.658Z,8.74
2019-03-10T14:27:43.730Z,8.71
2019-03-10T14:30:11.891Z,8.72
2019-03-10T14:32:39.786Z,9.29
2019-03-10T14:35:08.154Z,9.28
2019-03-10T14:37:36.127Z,9.16
2019-03-10T14:40:05.017Z,8.93
2019-03-10T14:42:33.862Z,8.86
2019-03-10T14:45:01.774Z,8.75
2019-03-10T14:47:29.708Z,8.72
2019-03-10T14:49:57.630Z,8.70
2019-03-10T14:52:29.341Z,8.68
2019-03-10T14:54:57.358Z,8.68
2019-03-10T14:57:25.365Z,8.61
2019-03-10T14:59:53.759Z,8.65
2019-03-10T15:02:21.838Z,8.60
2019-03-10T15:04:49.719Z,8.56
2019-03-10T15:07:18.599Z,8.53
2019-03-10T15:09:46.412Z,8.44
2019-03-10T15:12:14.480Z,8.43
2019-03-10T15:14:42.278Z,8.37
2019-03-10T15:17:10.996Z,8.37
2019-03-10T15:19:38.961Z,8.38
2019-03-10T15:22:06.906Z,8.40
2019-03-10T15:24:34.947Z,8.39
2019-03-10T15:27:02.905Z,8.37
2019-03-10T15:29:30.832Z,8.32
2019-03-10T15:31:58.974Z,8.36
2019-03-10T15:34:26.757Z,8.38
2019-03-10T15:36:54.606Z,8.37
2019-03-10T15:39:22.597Z,8.28
2019-03-10T15:41:50.437Z,8.20
2019-03-10T15:44:20.920Z,8.19
2019-03-10T15:46:48.996Z,8.19
2019-03-10T15:49:16.830Z,8.25
2019-03-10T15:51:44.812Z,8.23
2019-03-10T15:54:13.027Z,8.13
2019-03-10T15:56:40.991Z,8.10
2019-03-10T15:59:08.891Z,8.12
2019-03-10T16:01:36.854Z,8.21
2019-03-10T16:04:18.956Z,8.33
2019-03-10T16:06:47.378Z,8.26
2019-03-10T16:09:15.385Z,8.25
2019-03-10T16:11:43.824Z,8.19
2019-03-10T16:14:12.074Z,8.17
2019-03-10T16:16:43.592Z,8.20
2019-03-10T16:19:11.531Z,8.16
2019-03-10T16:21:39.698Z,8.25
2019-03-10T16:24:07.736Z,8.26
2019-03-10T16:26:35.759Z,8.21
2019-03-10T16:29:03.653Z,8.24
2019-03-10T16:31:31.539Z,8.22
2019-03-10T16:33:59.380Z,8.22
2019-03-10T16:36:27.325Z,8.26
2019-03-10T16:38:55.181Z,8.32
2019-03-10T16:41:23.001Z,8.36
2019-03-10T16:43:50.855Z,8.33
2019-03-10T16:46:24.786Z,8.36
2019-03-10T16:48:52.838Z,8.32
2019-03-10T16:51:20.804Z,8.30
2019-03-10T16:53:48.865Z,8.28
2019-03-10T16:56:18.668Z,8.26
2019-03-10T16:58:46.728Z,8.27
2019-03-10T17:01:14.619Z,8.30
2019-03-10T17:03:42.698Z,8.28
2019-03-10T17:06:10.480Z,8.21
2019-03-10T17:08:39.015Z,8.20
2019-03-10T17:11:06.990Z,8.19
2019-03-10T17:13:35.276Z,8.21
2019-03-10T17:16:03.401Z,8.19
2019-03-10T17:18:31.395Z,8.23
2019-03-10T17:20:59.271Z,8.19
2019-03-10T17:23:28.641Z,8.24
2019-03-10T17:25:57.407Z,8.30
2019-03-10T17:28:25.365Z,8.27
2019-03-10T17:30:53.404Z,8.29
2019-03-10T17:33:22.008Z,8.33
2019-03-10T17:35:49.945Z,8.39
2019-03-10T17:38:17.901Z,8.43
2019-03-10T17:40:45.799Z,8.46
2019-03-10T17:43:13.910Z,8.48
2019-03-10T17:45:41.903Z,8.49
2019-03-10T17:48:09.767Z,8.59
2019-03-10T17:50:37.672Z,8.55
2019-03-10T17:53:07.487Z,8.67
2019-03-10T17:55:38.006Z,8.77
2019-03-10T17:58:06.092Z,8.91
2019-03-10T18:00:34.518Z,8.95
2019-03-10T18:03:02.368Z,9.15
2019-03-10T18:05:30.243Z,9.06
2019-03-10T18:07:58.115Z,9.20
2019-03-10T18:10:27.003Z,9.19
2019-03-10T18:12:55.073Z,9.22
2019-03-10T18:15:23.069Z,9.19
2019-03-10T18:17:51.069Z,9.28
2019-03-10T18:20:19.135Z,9.28
2019-03-10T18:22:47.419Z,9.28
2019-03-10T18:25:15.661Z,9.28
2019-03-10T18:27:43.891Z,9.29
2019-03-10T18:30:14.288Z,9.30
2019-03-10T18:32:42.329Z,9.33
2019-03-10T18:35:10.372Z,9.31
2019-03-10T18:37:38.295Z,9.32
2019-03-10T18:40:11.875Z,9.36
2019-03-10T18:42:42.619Z,9.31
2019-03-10T18:45:15.120Z,9.32
2019-03-10T18:47:43.204Z,9.39
2019-03-10T18:50:14.740Z,9.44
2019-03-10T18:52:43.830Z,9.42
2019-03-10T18:55:16.135Z,9.44
2019-03-10T18:57:44.404Z,9.44
2019-03-10T19:00:18.159Z,9.48
2019-03-10T19:02:48.377Z,9.50
2019-03-10T19:05:16.423Z,9.49
2019-03-10T19:07:44.407Z,9.50
2019-03-10T19:10:14.922Z,9.55
2019-03-10T19:12:44.345Z,9.66
2019-03-10T19:15:14.171Z,9.85
2019-03-10T19:17:42.214Z,9.92
2019-03-10T19:20:11.009Z,9.95
2019-03-10T19:22:47.764Z,9.91
2019-03-10T19:25:15.850Z,9.89
2019-03-10T19:27:43.744Z,9.89
2019-03-10T19:30:13.691Z,9.86
2019-03-10T19:32:41.681Z,9.84
2019-03-10T19:35:10.175Z,9.72
2019-03-10T19:37:43.061Z,9.70
2019-03-10T19:40:15.273Z,9.60
2019-03-10T19:42:43.363Z,9.72
2019-03-10T19:45:12.525Z,9.72
2019-03-10T19:47:40.524Z,9.69
2019-03-10T19:50:10.164Z,9.69
2019-03-10T19:52:40.335Z,9.69
2019-03-10T19:55:13.602Z,9.75
2019-03-10T19:57:41.490Z,9.82
2019-03-10T20:00:16.294Z,9.75
2019-03-10T20:02:44.652Z,9.74
2019-03-10T20:05:12.900Z,9.80
2019-03-10T20:07:40.977Z,9.76
2019-03-10T20:10:10.112Z,9.91
2019-03-10T20:12:38.131Z,10.06
2019-03-10T20:15:07.512Z,10.16
2019-03-10T20:17:35.997Z,10.08
2019-03-10T20:20:04.641Z,10.19
2019-03-10T20:22:32.550Z,10.20
2019-03-10T20:25:08.835Z,10.17
2019-03-10T20:27:36.664Z,10.06
2019-03-10T20:30:05.183Z,10.18
2019-03-10T20:32:33.132Z,10.12
2019-03-10T20:35:00.996Z,10.17
2019-03-10T20:37:28.788Z,10.13
2019-03-10T20:39:57.250Z,10.23
2019-03-10T20:42:25.341Z,10.25
2019-03-10T20:44:53.190Z,10.25
2019-03-10T20:47:21.003Z,10.25
2019-03-10T20:49:49.149Z,10.33
2019-03-10T20:52:17.182Z,10.33
2019-03-10T20:54:45.546Z,10.37
2019-03-10T20:57:14.272Z,10.53
2019-03-10T20:59:42.940Z,10.60
2019-03-10T21:02:10.870Z,10.53
2019-03-10T21:04:38.968Z,10.61
2019-03-10T21:07:07.108Z,10.70
2019-03-10T21:09:35.136Z,10.69
2019-03-10T21:12:03.142Z,10.74
2019-03-10T21:14:30.986Z,10.80
2019-03-10T21:16:59.025Z,10.67
2019-03-10T21:19:26.983Z,10.74
2019-03-10T21:21:55.080Z,10.80
2019-03-10T21:24:23.308Z,10.74
2019-03-10T21:26:52.623Z,10.66
2019-03-10T21:29:20.641Z,10.69
2019-03-10T21:31:49.050Z,10.64
2019-03-10T21:34:17.001Z,10.63
2019-03-10T21:36:45.049Z,10.59
2019-03-10T21:39:13.054Z,10.64
2019-03-10T21:41:41.171Z,10.60
2019-03-10T21:44:09.361Z,10.62
2019-03-10T21:46:37.520Z,10.57
2019-03-10T21:49:05.422Z,10.52
2019-03-10T21:51:33.368Z,10.60
2019-03-10T21:54:01.365Z,10.63
2019-03-10T21:56:29.348Z,10.65
2019-03-10T21:58:57.138Z,10.67
2019-03-10T22:01:25.091Z,10.69
2019-03-10T22:03:52.997Z,10.70
2019-03-10T22:06:21.345Z,10.61
2019-03-10T22:08:49.394Z,10.65
2019-03-10T22:11:17.326Z,10.67
2019-03-10T22:13:46.882Z,10.62
2019-03-10T22:16:15.026Z,10.65
2019-03-10T22:18:42.976Z,10.61
2019-03-10T22:21:11.113Z,10.51
2019-03-10T22:23:40.104Z,10.67
2019-03-10T22:26:07.965Z,10.57
2019-03-10T22:28:35.897Z,10.51
2019-03-10T22:31:03.895Z,10.61
2019-03-10T22:33:31.730Z,10.54
2019-03-10T22:35:59.586Z,10.50
2019-03-10T22:38:27.370Z,10.50
2019-03-10T22:40:55.200Z,10.57
2019-03-10T22:43:23.207Z,10.52
2019-03-10T22:45:51.307Z,10.46
2019-03-10T22:48:19.131Z,10.49
2019-03-10T22:50:47.021Z,10.53
2019-03-10T22:53:15.087Z,10.58
2019-03-10T22:55:42.989Z,10.54
2019-03-10T22:58:10.855Z,10.51
2019-03-10T23:00:45.928Z,10.42
2019-03-10T23:03:14.121Z,10.38
2019-03-10T23:05:42.627Z,10.22
2019-03-10T23:08:10.650Z,10.29
2019-03-10T23:10:38.531Z,10.16
2019-03-10T23:13:06.484Z,10.10
2019-03-10T23:15:34.474Z,10.11
2019-03-10T23:18:02.483Z,10.07
2019-03-10T23:20:30.362Z,10.09
2019-03-10T23:22:58.427Z,9.98
2019-03-10T23:25:26.223Z,9.95
2019-03-10T23:27:54.143Z,9.78
2019-03-10T23:30:22.638Z,9.57
2019-03-10T23:32:50.717Z,9.52
2019-03-10T23:35:18.627Z,9.28
2019-03-10T23:37:47.217Z,9.10
2019-03-10T23:40:15.836Z,9.02
2019-03-10T23:42:43.798Z,8.91
2019-03-10T23:45:11.958Z,8.73
2019-03-10T23:47:39.917Z,8.51
2019-03-10T23:50:08.733Z,8.11
2019-03-10T23:52:36.810Z,7.89
2019-03-10T23:55:04.928Z,7.25
2019-03-10T23:57:32.909Z,6.33
